Latest Weather Observations for Young

IDN60801

Issued at 8:33 pm EST Saturday 30 July 2016 (issued every 30 minutes, with the page automatically refreshed every 10 minutes)

About weather observations | Map of weather stations | Latest weather observations for NSW | Other Formats
Station Details ID: 073138 Name: YOUNG AIRPORT Lat: -34.25 Lon: 148.25 Height: 379.6 m
Data from the previous 72 hours. | See also: Recent months at Young
Date/Time
EST
Temp
°C
App
Temp
°C
Dew
Point
°C
Rel
Hum
%
Delta-T
°C
Wind Press
QNH
hPa
Press
MSL
hPa
Rain since
9am
mm
Dir  Spd
km/h
Gust
km/h
Spd
kts
Gust
kts
30/08:30pm 3.8 1.7 3.7 99 0.0 SW 4 9 2 5 1020.4 1021.1 0.0
30/08:00pm 4.2 2.9 3.9 98 0.1 CALM 0 0 0 0 1020.3 1021.0 0.0
30/07:30pm 5.5 4.5 5.4 99 0.0 CALM 0 0 0 0 1020.1 1020.9 0.0
30/07:00pm 5.4 4.2 4.8 96 0.3 CALM 0 9 0 5 1020.3 1021.0 0.0
30/06:30pm 6.0 4.9 5.1 94 0.4 CALM 0 0 0 0 1020.4 1021.1 0.0
30/06:00pm 6.6 4.4 5.4 92 0.5 SW 6 7 3 4 1020.0 1020.8 0.0
30/05:30pm 7.8 6.7 5.3 84 1.1 CALM 0 0 0 0 1020.0 1020.8 0.0
30/05:00pm 10.3 8.2 5.9 74 2.1 W 6 7 3 4 1020.1 1020.9 0.0
30/04:30pm 11.8 9.8 6.3 69 2.6 SSW 6 9 3 5 1020.0 1020.8 0.0
30/04:00pm 11.8 10.2 6.3 69 2.6 S 4 7 2 4 1020.0 1020.8 0.0
30/03:30pm 11.8 9.7 5.9 67 2.8 SE 6 9 3 5 1020.0 1020.8 0.0
30/03:00pm 11.8 9.9 6.5 70 2.6 SSE 6 11 3 6 1020.6 1021.3 0.0
30/02:30pm 11.0 8.6 5.1 67 2.8 SSW 7 13 4 7 1021.0 1021.8 0.0
30/02:00pm 11.7 10.2 7.0 73 2.3 E 4 9 2 5 1020.9 1021.7 0.0
30/01:30pm 10.2 7.5 5.6 73 2.2 S 9 13 5 7 1021.2 1022.0 0.0
30/01:00pm 10.5 7.9 6.1 74 2.1 S 9 13 5 7 1021.7 1022.5 0.0
30/12:30pm 10.0 7.3 5.6 74 2.1 SE 9 15 5 8 1022.2 1023.0 0.0
30/12:00pm 9.4 6.7 5.6 77 1.8 S 9 15 5 8 1022.8 1023.6 0.0
30/11:30am 9.4 7.0 5.4 76 1.9 ESE 7 13 4 7 1023.4 1024.2 0.0
30/11:00am 9.0 6.3 5.4 78 1.7 S 9 15 5 8 1023.7 1024.5 0.0
30/10:30am 8.7 6.3 5.3 79 1.6 SSE 7 13 4 7 1023.8 1024.6 0.0
30/10:00am 8.7 6.1 6.2 84 1.2 SSE 9 13 5 7 1023.8 1024.6 0.0
30/09:30am 8.1 5.4 5.7 85 1.1 S 9 15 5 8 1024.1 1024.9 0.0
30/09:00am 7.5 5.2 5.6 88 0.9 ESE 7 9 4 5 1024.0 1024.8 0.2
30/08:30am 6.7 5.8 6.0 95 0.3 CALM 0 2 0 1 1024.0 1024.8 0.2
30/08:00am 5.6 4.6 5.5 99 0.0 CALM 0 0 0 0 1023.7 1024.5 0.2
30/07:30am 4.3 1.8 3.6 95 0.3 WSW 6 9 3 5 1023.7 1024.5 0.2
30/07:00am 5.7 4.5 4.8 94 0.4 CALM 0 0 0 0 1023.4 1024.2 0.2
30/06:30am 6.5 4.2 5.0 90 0.7 SW 6 7 3 4 1023.1 1023.9 0.2
30/06:00am 6.8 4.3 4.8 87 0.9 SSW 7 13 4 7 1023.1 1023.9 0.2
30/05:30am 6.7 4.3 5.2 90 0.7 SSW 7 11 4 6 1023.1 1023.9 0.2
30/05:00am 7.4 5.0 5.4 87 0.9 SSW 7 11 4 6 1022.8 1023.6 0.2
30/04:30am 7.4 5.2 5.5 88 0.9 SSW 6 15 3 8 1022.8 1023.6 0.2
30/04:00am 7.1 6.3 6.4 95 0.3 CALM 0 0 0 0 1022.9 1023.8 0.2
30/03:30am 7.1 6.3 6.4 95 0.3 CALM 0 0 0 0 1022.9 1023.8 0.2
30/03:00am 7.1 6.2 6.2 94 0.4 CALM 0 0 0 0 1023.2 1024.0 0.2
30/02:30am 7.1 6.2 6.2 94 0.4 CALM 0 0 0 0 1023.3 1024.1 0.2
30/02:00am 7.2 6.3 6.1 93 0.5 CALM 0 0 0 0 1023.5 1024.3 0.2
30/01:30am 7.2 6.3 6.1 93 0.5 CALM 0 0 0 0 1023.6 1024.4 0.2
30/01:00am 7.2 6.3 6.0 92 0.6 CALM 0 0 0 0 1023.9 1024.7 0.2
30/12:30am 7.2 6.2 5.8 91 0.6 CALM 0 6 0 3 1023.9 1024.7 0.2
30/12:00am 7.1 6.2 5.9 92 0.5 CALM 0 0 0 0 1024.0 1024.8 0.2
 
Date/Time
EST
Temp
°C
App
Temp
°C
Dew
Point
°C
Rel
Hum
%
Delta-T
°C
Wind Press
QNH
hPa
Press
MSL
hPa
Rain since
9am
mm
Dir  Spd
km/h
Gust
km/h
Spd
kts
Gust
kts
29/11:30pm 7.2 6.2 5.8 91 0.6 CALM 0 0 0 0 1024.2 1025.0 0.2
29/11:00pm 7.2 6.2 5.8 91 0.6 CALM 0 0 0 0 1024.2 1025.0 0.2
29/10:30pm 7.3 6.3 5.4 88 0.9 CALM 0 0 0 0 1024.0 1024.8 0.2
29/10:00pm 7.2 5.7 5.2 87 0.9 WNW 2 7 1 4 1024.0 1024.8 0.2
29/09:30pm 7.2 6.1 5.2 87 0.9 CALM 0 4 0 2 1024.1 1024.9 0.2
29/09:00pm 7.2 6.1 5.2 87 0.9 CALM 0 0 0 0 1024.2 1025.0 0.2
29/08:30pm 7.2 4.8 5.3 88 0.9 SW 7 9 4 5 1024.2 1025.0 0.2
29/08:00pm 7.1 4.4 5.4 89 0.8 WSW 9 15 5 8 1024.1 1024.9 0.2
29/07:30pm 6.7 4.0 5.7 93 0.5 WSW 9 13 5 7 1023.7 1024.5 0.2
29/07:00pm 6.8 4.3 6.4 97 0.2 SW 9 15 5 8 1023.7 1024.5 0.2
29/06:30pm 6.9 4.0 6.3 96 0.3 WSW 11 19 6 10 1023.5 1024.3 0.2
29/06:00pm 7.5 4.4 5.5 87 0.9 WSW 11 19 6 10 1023.1 1023.9 0.2
29/05:30pm 7.8 5.3 4.9 82 1.3 SW 7 11 4 6 1022.7 1023.5 0.2
29/05:00pm 8.1 5.3 5.0 81 1.4 WSW 9 13 5 7 1022.6 1023.4 0.2
29/04:30pm 8.2 4.6 5.0 80 1.5 WSW 13 20 7 11 1022.7 1023.5 0.2
29/04:00pm 8.5 4.9 4.9 78 1.6 WSW 13 20 7 11 1022.7 1023.5 0.2
29/03:30pm 8.8 5.3 5.4 79 1.6 W 13 22 7 12 1022.6 1023.4 0.2
29/03:00pm 9.1 5.1 5.1 76 1.8 WSW 15 26 8 14 1022.7 1023.5 0.2
29/02:30pm 9.1 6.0 5.5 78 1.7 WSW 11 17 6 9 1022.5 1023.3 0.2
29/02:00pm 8.3 3.7 5.6 83 1.2 SW 19 28 10 15 1022.7 1023.5 0.2
29/01:30pm 8.8 5.9 8.2 96 0.3 WSW 13 17 7 9 1023.1 1023.9 0.2
29/01:00pm 9.2 5.5 8.1 93 0.5 WSW 17 24 9 13 1023.4 1024.2 0.0
29/12:30pm 8.5 5.2 6.6 88 0.9 SW 13 17 7 9 1023.7 1024.5 0.0
29/12:00pm 8.0 4.2 7.4 96 0.3 SSW 17 22 9 12 1024.2 1025.0 0.0
29/11:30am 9.2 6.8 6.8 85 1.1 W 9 15 5 8 1024.5 1025.3 0.0
29/11:00am 8.9 6.1 6.9 87 0.9 WSW 11 15 6 8 1024.9 1025.7 0.0
29/10:30am 9.3 6.2 7.3 87 1.0 WSW 13 20 7 11 1025.1 1026.0 0.0
29/10:00am 8.7 6.5 7.9 95 0.4 W 9 13 5 7 1025.4 1026.3 0.0
29/09:30am 7.5 5.6 7.4 99 0.0 S 7 11 4 6 1025.4 1026.3 0.0
29/09:00am 6.8 4.7 6.7 99 0.0 SSW 7 11 4 6 1025.4 1026.3 0.6
29/08:30am 6.6 3.7 6.3 98 0.1 SW 11 13 6 7 1025.4 1026.3 0.6
29/08:00am 6.1 4.8 6.0 99 0.0 WNW 2 7 1 4 1025.2 1026.1 0.6
29/07:30am 5.8 4.8 5.7 99 0.0 CALM 0 6 0 3 1025.3 1026.2 0.6
29/07:00am 5.9 3.6 5.8 99 0.0 SW 7 9 4 5 1025.3 1026.2 0.6
29/06:30am 5.9 3.2 5.8 99 0.0 SW 9 13 5 7 1025.2 1026.1 0.6
29/06:00am 5.9 4.6 5.8 99 0.0 WSW 2 13 1 7 1024.9 1025.7 0.6
29/05:30am 5.8 3.7 5.7 99 0.0 SSW 6 7 3 4 1024.7 1025.5 0.6
29/05:00am 5.9 3.6 5.8 99 0.0 SW 7 9 4 5 1024.6 1025.4 0.6
29/04:30am 6.0 4.3 5.9 99 0.0 WSW 4 9 2 5 1024.4 1025.2 0.6
29/04:00am 6.0 4.3 5.9 99 0.0 W 4 9 2 5 1024.3 1025.1 0.4
29/03:30am 5.9 4.6 5.8 99 0.0 WNW 2 6 1 3 1024.4 1025.2 0.4
29/03:00am 5.8 4.8 5.7 99 0.0 CALM 0 0 0 0 1024.6 1025.4 0.4
29/02:30am 6.1 4.4 5.8 98 0.1 W 4 9 2 5 1024.7 1025.5 0.4
29/02:00am 6.5 4.5 6.4 99 0.0 WSW 6 7 3 4 1024.9 1025.7 0.4
29/01:30am 6.5 5.3 6.4 99 0.0 WSW 2 7 1 4 1025.1 1026.0 0.2
29/01:00am 6.7 4.6 6.6 99 0.0 WSW 7 11 4 6 1025.3 1026.2 0.2
29/12:30am 6.7 5.2 6.6 99 0.0 W 4 9 2 5 1025.3 1026.2 0.2
29/12:00am 6.9 6.1 6.6 98 0.1 CALM 0 0 0 0 1025.6 1026.5 0.0
 
Date/Time
EST
Temp
°C
App
Temp
°C
Dew
Point
°C
Rel
Hum
%
Delta-T
°C
Wind Press
QNH
hPa
Press
MSL
hPa
Rain since
9am
mm
Dir  Spd
km/h
Gust
km/h
Spd
kts
Gust
kts
28/11:30pm 7.0 4.8 6.4 96 0.3 WSW 7 9 4 5 1025.7 1026.6 0.0
28/11:00pm 6.9 4.7 6.2 95 0.3 SW 7 11 4 6 1025.9 1026.7 0.0
28/10:30pm 7.0 4.4 6.1 94 0.4 WSW 9 15 5 8 1026.0 1026.8 0.0
28/10:00pm 6.9 5.5 5.5 91 0.6 W 2 7 1 4 1026.2 1027.0 0.0
28/09:30pm 6.9 5.5 5.4 90 0.7 SW 2 7 1 4 1026.3 1027.1 0.0
28/09:00pm 7.0 4.2 5.0 87 0.9 W 9 11 5 6 1026.2 1027.0 0.0
28/08:30pm 7.2 4.9 4.9 85 1.0 W 6 9 3 5 1026.3 1027.1 0.0
28/08:00pm 7.2 6.1 4.9 85 1.0 CALM 0 0 0 0 1026.4 1027.2 0.0
28/07:30pm 7.2 4.7 5.0 86 1.0 SW 7 11 4 6 1026.6 1027.4 0.0
28/07:00pm 7.1 3.7 5.7 91 0.6 SW 13 20 7 11 1026.6 1027.4 0.0
28/06:30pm 7.6 3.2 4.9 83 1.2 SW 17 24 9 13 1026.4 1027.2 0.0
28/06:00pm 7.8 4.9 4.6 80 1.4 WSW 9 17 5 9 1026.1 1026.9 0.0
28/05:30pm 8.0 4.0 4.9 81 1.4 SW 15 20 8 11 1025.9 1026.7 0.0
28/05:00pm 8.2 4.5 4.6 78 1.6 SW 13 20 7 11 1025.9 1026.7 0.0
28/04:30pm 8.5 4.4 4.5 76 1.8 WSW 15 22 8 12 1025.7 1026.6 0.0
28/04:00pm 8.8 4.7 4.4 74 2.0 WSW 15 24 8 13 1025.5 1026.4 0.0
28/03:30pm 9.0 5.8 5.0 76 1.8 WSW 11 15 6 8 1025.4 1026.3 0.0
28/03:00pm 9.2 5.6 5.2 76 1.8 WSW 13 20 7 11 1025.5 1026.4 0.0
28/02:30pm 9.0 4.2 4.6 74 2.0 WSW 19 26 10 14 1025.5 1026.4 0.0
28/02:00pm 9.0 5.3 4.6 74 2.0 WSW 13 17 7 9 1025.7 1026.6 0.0
28/01:30pm 8.8 4.8 4.8 76 1.8 SW 15 22 8 12 1026.0 1026.8 0.0
28/01:00pm 8.5 4.8 4.7 77 1.7 WSW 13 20 7 11 1026.3 1027.1 0.0
28/12:30pm 8.7 4.3 4.7 76 1.8 SW 17 24 9 13 1026.4 1027.2 0.0
28/12:00pm 8.6 4.5 4.2 74 2.0 WSW 15 22 8 12 1026.8 1027.6 0.0
28/11:30am 8.2 3.7 4.2 76 1.8 SW 17 26 9 14 1027.4 1028.3 0.0
28/11:00am 7.9 2.7 3.6 74 1.9 SW 20 28 11 15 1027.7 1028.6 0.0
28/10:30am 8.0 3.2 4.4 78 1.6 SW 19 24 10 13 1027.5 1028.4 0.0
28/10:00am 7.3 3.3 4.8 84 1.1 SW 15 22 8 12 1027.5 1028.4 0.0
28/09:30am 6.8 3.3 5.4 91 0.6 SW 13 19 7 10 1027.2 1028.0 0.0
28/09:00am 5.6 3.1 5.0 96 0.3 WSW 7 11 4 6 1026.9 1027.7 2.0
28/08:30am 4.8 2.3 4.7 99 0.0 N 7 9 4 5 1026.8 1027.6 2.0
28/08:00am 3.4 0.8 3.3 99 0.0 N 6 7 3 4 1026.4 1027.2 2.0
28/07:30am 2.5 0.1 2.4 99 0.0 N 4 7 2 4 1026.3 1027.1 2.0
28/07:00am 1.5 -1.0 1.4 99 0.0 SW 4 7 2 4 1025.9 1026.7 2.0
28/06:30am 2.1 0.4 2.0 99 0.0 CALM 0 7 0 4 1025.5 1026.4 2.0
28/06:00am 3.5 2.1 3.4 99 0.0 CALM 0 0 0 0 1025.1 1026.0 2.0
28/05:30am 3.8 2.0 3.7 99 0.0 NNW 2 7 1 4 1025.0 1025.8 2.0
28/05:00am 1.9 0.2 1.8 99 0.0 CALM 0 0 0 0 1024.5 1025.3 2.0
28/04:30am 1.9 -0.6 1.8 99 0.0 W 4 9 2 5 1024.3 1025.1 2.0
28/04:00am 2.8 0.5 2.5 98 0.1 W 4 7 2 4 1024.1 1024.9 2.0
28/03:30am 3.5 2.0 2.9 96 0.2 CALM 0 0 0 0 1024.1 1024.9 2.0
28/03:00am 3.8 1.1 2.9 94 0.4 SE 6 9 3 5 1023.9 1024.7 2.0
28/02:30am 3.6 -0.3 3.2 97 0.2 WSW 13 17 7 9 1023.4 1024.2 1.8
28/02:00am 4.4 3.0 3.8 96 0.3 CALM 0 0 0 0 1023.9 1024.7 1.8
28/01:30am 5.4 3.4 4.5 94 0.4 WSW 4 7 2 4 1024.1 1024.9 1.8
28/01:00am 6.3 3.4 4.9 91 0.6 SW 9 11 5 6 1023.9 1024.7 1.8
28/12:30am 7.4 4.1 6.3 93 0.5 SW 13 20 7 11 1023.7 1024.5 1.8
28/12:00am 7.7 3.8 7.0 95 0.3 WSW 17 26 9 14 1023.7 1024.5 1.8
 
Date/Time
EST
Temp
°C
App
Temp
°C
Dew
Point
°C
Rel
Hum
%
Delta-T
°C
Wind Press
QNH
hPa
Press
MSL
hPa
Rain since
9am
mm
Dir  Spd
km/h
Gust
km/h
Spd
kts
Gust
kts
27/11:30pm 7.5 3.8 6.4 93 0.5 WSW 15 24 8 13 1023.2 1024.0 1.8
27/11:00pm 7.9 5.3 7.6 98 0.1 W 11 17 6 9 1022.9 1023.8 1.8
27/10:30pm 8.0 4.9 7.4 96 0.3 WSW 13 26 7 14 1022.8 1023.6 1.8
27/10:00pm 8.0 4.9 7.4 96 0.3 WSW 13 17 7 9 1022.6 1023.4 1.8
27/09:30pm 8.0 5.3 7.4 96 0.3 W 11 20 6 11 1022.5 1023.3 1.8
27/09:00pm 7.9 5.6 7.3 96 0.3 W 9 13 5 7 1022.7 1023.5 1.8

Other Formats:

Comma delimited format used in spreadsheet applications
http://www.bom.gov.au/fwo/IDN60801/IDN60801.94712.axf

JavaScript Object Notation format (JSON) in row-major order
http://www.bom.gov.au/fwo/IDN60801/IDN60801.94712.json